createdAt,value
2023-02-06T00:02:56.629Z,9.00
2023-02-06T00:07:56.582Z,8.50
2023-02-06T00:12:56.480Z,9.10
2023-02-06T00:17:56.430Z,8.70
2023-02-06T00:22:56.349Z,9.30
2023-02-06T00:27:56.262Z,10.00
2023-02-06T00:32:56.249Z,9.50
2023-02-06T00:37:56.199Z,10.20
2023-02-06T00:42:56.084Z,9.70
2023-02-06T00:47:56.038Z,9.30
2023-02-06T00:52:56.006Z,9.60
2023-02-06T00:57:56.016Z,8.50
2023-02-06T01:02:55.860Z,9.10
2023-02-06T01:07:55.768Z,8.60
2023-02-06T01:12:55.724Z,8.80
2023-02-06T01:17:55.710Z,8.50
2023-02-06T01:22:55.583Z,7.90
2023-02-06T01:27:55.580Z,8.60
2023-02-06T01:32:55.425Z,8.10
2023-02-06T01:37:55.363Z,8.00
2023-02-06T01:42:55.405Z,7.30
2023-02-06T01:47:55.282Z,7.20
2023-02-06T01:52:55.204Z,7.00
2023-02-06T01:57:55.122Z,7.00
2023-02-06T02:02:55.061Z,7.20
2023-02-06T02:07:55.039Z,6.70
2023-02-06T02:12:54.932Z,7.00
2023-02-06T02:17:54.894Z,6.60
2023-02-06T02:22:54.808Z,7.20
2023-02-06T02:27:54.790Z,7.20
2023-02-06T02:32:54.709Z,7.80
2023-02-06T02:37:54.652Z,7.60
2023-02-06T02:42:54.616Z,6.80
2023-02-06T02:47:54.487Z,7.00
2023-02-06T02:52:54.485Z,6.40
2023-02-06T02:57:54.370Z,6.40
2023-02-06T03:02:54.322Z,7.10
2023-02-06T03:07:54.595Z,6.60
2023-02-06T03:12:54.296Z,6.80
2023-02-06T03:17:54.252Z,6.50
2023-02-06T03:22:54.051Z,7.00
2023-02-06T03:27:54.399Z,6.90
2023-02-06T03:32:53.907Z,7.00
2023-02-06T03:37:53.845Z,7.20
2023-02-06T03:42:53.815Z,7.10
2023-02-06T03:47:53.701Z,7.30
2023-02-06T03:52:53.699Z,7.60
2023-02-06T03:57:53.574Z,7.90
2023-02-06T04:02:53.574Z,7.50
2023-02-06T04:07:53.554Z,7.80
2023-02-06T04:12:53.397Z,7.70
2023-02-06T04:18:00.580Z,8.50
2023-02-06T04:22:54.277Z,8.80
2023-02-06T04:27:53.322Z,8.50
2023-02-06T04:32:53.142Z,7.80
2023-02-06T04:37:53.090Z,8.00
2023-02-06T04:42:53.012Z,8.50
2023-02-06T04:47:53.007Z,8.10
2023-02-06T04:52:52.878Z,8.10
2023-02-06T04:57:52.890Z,8.50
2023-02-06T05:02:52.795Z,8.40
2023-02-06T05:07:52.747Z,8.50
2023-02-06T05:12:52.624Z,8.70
2023-02-06T05:17:52.557Z,8.90
2023-02-06T05:22:52.551Z,8.40
2023-02-06T05:27:52.515Z,9.40
2023-02-06T05:32:52.470Z,8.20
2023-02-06T05:37:52.315Z,8.90
2023-02-06T05:42:52.235Z,8.00
2023-02-06T05:47:52.170Z,8.50
2023-02-06T05:52:52.194Z,8.50
2023-02-06T05:57:52.063Z,8.20
2023-02-06T06:02:52.047Z,8.20
2023-02-06T06:07:51.965Z,8.90
2023-02-06T06:12:51.876Z,8.90
2023-02-06T06:17:51.814Z,9.00
2023-02-06T06:22:51.739Z,9.20
2023-02-06T06:27:51.735Z,9.60
2023-02-06T06:32:51.620Z,8.90
2023-02-06T06:37:51.556Z,8.70
2023-02-06T06:42:51.552Z,9.60
2023-02-06T06:47:51.481Z,9.70
2023-02-06T06:52:51.352Z,10.00
2023-02-06T06:57:51.304Z,10.20
2023-02-06T07:02:51.309Z,11.00
2023-02-06T07:07:51.147Z,10.30
2023-02-06T07:12:51.126Z,9.50
2023-02-06T07:17:51.006Z,9.60
2023-02-06T07:22:51.006Z,9.40
2023-02-06T07:27:50.931Z,10.00
2023-02-06T07:32:50.920Z,10.20
2023-02-06T07:37:50.822Z,9.20
2023-02-06T07:42:50.773Z,10.10
2023-02-06T07:47:50.696Z,10.00
2023-02-06T07:52:50.625Z,10.30
2023-02-06T07:57:50.568Z,10.50
2023-02-06T08:02:50.486Z,10.80
2023-02-06T08:07:50.432Z,9.80
2023-02-06T08:12:50.357Z,10.50
2023-02-06T08:17:50.326Z,10.30
2023-02-06T08:22:50.197Z,10.60
2023-02-06T08:27:50.217Z,10.40
2023-02-06T08:32:50.064Z,10.20
2023-02-06T08:37:50.067Z,10.60
2023-02-06T08:42:49.963Z,10.50
2023-02-06T08:47:49.891Z,10.70
2023-02-06T08:52:49.924Z,10.50
2023-02-06T08:57:49.786Z,10.30
2023-02-06T09:02:49.788Z,10.50
2023-02-06T09:07:49.596Z,10.00
2023-02-06T09:12:49.610Z,10.90
2023-02-06T09:17:49.481Z,11.10
2023-02-06T09:22:49.459Z,11.20
2023-02-06T09:27:49.461Z,11.00
2023-02-06T09:32:49.366Z,11.10
2023-02-06T09:37:49.222Z,11.00
2023-02-06T09:42:49.140Z,11.60
2023-02-06T09:47:49.088Z,11.50
2023-02-06T09:52:49.030Z,11.70
2023-02-06T09:57:48.941Z,11.60
2023-02-06T10:02:48.904Z,11.40
2023-02-06T10:07:48.825Z,11.70
2023-02-06T10:12:48.762Z,12.20
2023-02-06T10:17:48.734Z,11.40
2023-02-06T10:22:48.649Z,11.30
2023-02-06T10:27:48.616Z,11.10
2023-02-06T10:32:48.534Z,11.50
2023-02-06T10:37:48.464Z,11.70
2023-02-06T10:42:48.380Z,12.60
2023-02-06T10:47:48.372Z,12.10
2023-02-06T10:52:48.251Z,12.50
2023-02-06T10:57:48.186Z,12.80
2023-02-06T11:02:52.810Z,13.30
2023-02-06T11:07:49.061Z,13.80
2023-02-06T11:12:48.008Z,14.30
2023-02-06T11:17:47.978Z,14.60
2023-02-06T11:22:53.185Z,15.30
2023-02-06T11:27:48.838Z,15.90
2023-02-06T11:33:02.702Z,17.80
2023-02-06T11:37:48.655Z,16.90
2023-02-06T11:42:47.640Z,15.70
2023-02-06T11:47:47.536Z,16.80
2023-02-06T11:52:47.493Z,17.10
2023-02-06T11:57:47.401Z,17.00
2023-02-06T12:02:47.334Z,17.10
2023-02-06T12:07:47.327Z,17.70
2023-02-06T12:12:47.214Z,17.40
2023-02-06T12:17:47.181Z,16.50
2023-02-06T12:22:47.097Z,17.20
2023-02-06T12:27:47.021Z,16.90
2023-02-06T12:32:46.944Z,16.40
2023-02-06T12:37:46.955Z,17.30
2023-02-06T12:42:46.803Z,17.30
2023-02-06T12:47:46.733Z,18.80
2023-02-06T12:52:46.690Z,13.00
2023-02-06T12:57:46.713Z,14.00
2023-02-06T13:02:46.579Z,14.60
2023-02-06T13:07:49.651Z,16.70
2023-02-06T13:12:46.440Z,14.60
2023-02-06T13:17:46.345Z,15.30
2023-02-06T13:22:46.288Z,14.60
2023-02-06T13:27:46.280Z,15.50
2023-02-06T13:32:46.178Z,15.60
2023-02-06T13:37:48.036Z,15.60
2023-02-06T13:42:46.150Z,15.20
2023-02-06T13:47:46.397Z,15.60
2023-02-06T13:52:45.920Z,14.80
2023-02-06T13:57:45.806Z,14.10
2023-02-06T14:02:45.811Z,13.80
2023-02-06T14:07:45.835Z,11.80
2023-02-06T14:12:45.630Z,11.50
2023-02-06T14:17:45.894Z,10.20
2023-02-06T14:22:45.569Z,6.30
2023-02-06T14:27:48.047Z,6.60
2023-02-06T14:32:46.382Z,6.60
2023-02-06T14:37:45.303Z,6.40
2023-02-06T14:42:45.252Z,6.30
2023-02-06T14:47:45.148Z,6.00
2023-02-06T14:52:45.210Z,6.40
2023-02-06T14:57:45.046Z,5.70
2023-02-06T15:02:45.014Z,6.30
2023-02-06T15:07:44.997Z,6.20
2023-02-06T15:12:44.847Z,4.90
2023-02-06T15:17:44.858Z,4.80
2023-02-06T15:22:44.747Z,4.60
2023-02-06T15:27:44.680Z,5.40
2023-02-06T15:32:44.624Z,5.40
2023-02-06T15:37:44.904Z,5.10
2023-02-06T15:42:44.767Z,5.40
2023-02-06T15:47:44.469Z,5.90
2023-02-06T15:52:44.317Z,5.90
2023-02-06T15:57:44.312Z,7.40
2023-02-06T16:02:44.244Z,7.20
2023-02-06T16:07:44.128Z,6.70
2023-02-06T16:12:44.347Z,6.60
2023-02-06T16:17:44.115Z,6.80
2023-02-06T16:22:43.969Z,7.20
2023-02-06T16:27:44.061Z,6.70
2023-02-06T16:32:43.897Z,7.20
2023-02-06T16:37:43.786Z,6.90
2023-02-06T16:42:43.770Z,7.80
2023-02-06T16:47:43.761Z,8.70
2023-02-06T16:52:43.695Z,8.70
2023-02-06T16:57:43.498Z,8.10
2023-02-06T17:02:44.407Z,8.80
2023-02-06T17:07:43.367Z,9.60
2023-02-06T17:12:43.536Z,9.60
2023-02-06T17:17:43.358Z,9.90
2023-02-06T17:22:43.245Z,9.00
2023-02-06T17:27:43.223Z,8.60
2023-02-06T17:32:43.120Z,9.20
2023-02-06T17:37:42.973Z,8.90
2023-02-06T17:42:43.068Z,9.50
2023-02-06T17:47:43.341Z,9.50
2023-02-06T17:52:42.852Z,10.90
2023-02-06T17:57:42.777Z,9.70
2023-02-06T18:02:42.787Z,10.10
2023-02-06T18:07:42.639Z,9.70
2023-02-06T18:12:42.568Z,10.50
2023-02-06T18:17:42.747Z,10.80
2023-02-06T18:22:42.766Z,10.20
2023-02-06T18:27:42.976Z,11.20
2023-02-06T18:32:42.424Z,12.50
2023-02-06T18:37:42.253Z,13.10
2023-02-06T18:42:42.668Z,15.30
2023-02-06T18:47:42.426Z,14.00
2023-02-06T18:52:42.223Z,15.30
2023-02-06T18:57:42.119Z,13.90
2023-02-06T19:02:41.870Z,13.10
2023-02-06T19:07:41.810Z,13.40
2023-02-06T19:12:41.839Z,13.30
2023-02-06T19:17:41.761Z,13.40
2023-02-06T19:22:41.641Z,13.90
2023-02-06T19:27:41.591Z,13.50
2023-02-06T19:32:41.659Z,13.30
2023-02-06T19:37:41.500Z,14.90
2023-02-06T19:42:41.502Z,15.30
2023-02-06T19:47:41.364Z,16.20
2023-02-06T19:52:44.732Z,17.90
2023-02-06T19:57:41.196Z,16.20
2023-02-06T20:02:41.128Z,16.20
2023-02-06T20:07:41.127Z,15.50
2023-02-06T20:12:41.079Z,16.70
2023-02-06T20:17:41.501Z,16.80
2023-02-06T20:22:40.953Z,18.00
2023-02-06T20:27:40.835Z,16.90
2023-02-06T20:32:40.965Z,17.30
2023-02-06T20:37:40.830Z,17.30
2023-02-06T20:42:40.600Z,17.20
2023-02-06T20:47:40.553Z,16.80
2023-02-06T20:52:41.350Z,18.30
2023-02-06T20:57:40.581Z,17.00
2023-02-06T21:02:40.486Z,17.30
2023-02-06T21:07:40.303Z,18.30
2023-02-06T21:12:40.437Z,17.30
2023-02-06T21:17:40.240Z,18.10
2023-02-06T21:22:40.220Z,16.90
2023-02-06T21:27:40.066Z,18.60
2023-02-06T21:32:40.002Z,17.80
2023-02-06T21:37:39.927Z,15.80
2023-02-06T21:42:39.899Z,16.20
2023-02-06T21:47:39.845Z,16.40
2023-02-06T21:52:39.801Z,19.50
2023-02-06T21:57:39.678Z,20.80
2023-02-06T22:02:39.718Z,20.60
2023-02-06T22:07:39.570Z,20.10
2023-02-06T22:12:40.468Z,21.70
2023-02-06T22:17:39.615Z,23.10
2023-02-06T22:22:39.354Z,24.60
2023-02-06T22:27:39.343Z,22.80
2023-02-06T22:32:40.895Z,22.40
2023-02-06T22:37:39.139Z,21.90
2023-02-06T22:42:39.113Z,21.30
2023-02-06T22:47:39.029Z,21.80
2023-02-06T22:52:39.185Z,22.60
2023-02-06T22:57:38.909Z,23.60
2023-02-06T23:02:38.932Z,23.30
2023-02-06T23:07:39.009Z,22.50
2023-02-06T23:12:38.768Z,22.50
2023-02-06T23:17:38.663Z,23.70
2023-02-06T23:22:38.674Z,21.80
2023-02-06T23:27:38.527Z,21.60
2023-02-06T23:32:38.664Z,22.10
2023-02-06T23:37:38.402Z,21.20
2023-02-06T23:42:38.289Z,20.60
2023-02-06T23:47:38.373Z,20.50
2023-02-06T23:52:38.354Z,20.30
2023-02-06T23:57:38.127Z,17.70
